Time;durP1;ratioP1;P1;durP2;ratioP2;P2;SDS_P1;SDS_P2;PMS_P1;PMS_P2;Temp;Humidity;BMP_temperature;BMP_pressure;BME280_temperature;BME280_humidity;BME280_pressure;Samples;Min_cycle;Max_cycle;Signal;HPM_P1;HPM_P2
2022/10/07 00:00:12;;;;;;;13.70;3.33;;;10.60;1.00;;;;;;5078021;28;20193;-45
2022/10/07 00:02:38;;;;;;;7.63;3.50;;;10.60;1.00;;;;;;5073742;28;20326;-45
2022/10/07 00:05:03;;;;;;;10.03;3.50;;;10.60;1.00;;;;;;5070127;28;20562;-44
2022/10/07 00:07:29;;;;;;;10.23;3.73;;;10.70;1.00;;;;;;5072595;28;20475;-44
2022/10/07 00:09:54;;;;;;;9.83;3.33;;;10.70;1.00;;;;;;5072679;28;20188;-44
2022/10/07 00:12:20;;;;;;;10.23;3.20;;;10.70;1.00;;;;;;5079971;28;20850;-44
2022/10/07 00:14:45;;;;;;;8.30;3.45;;;10.70;1.00;;;;;;5082118;28;20537;-44
2022/10/07 00:17:11;;;;;;;8.87;2.80;;;10.70;1.00;;;;;;5088514;28;20247;-44
2022/10/07 00:19:37;;;;;;;10.70;3.93;;;10.70;1.00;;;;;;5080134;28;21006;-44
2022/10/07 00:22:02;;;;;;;4.93;3.00;;;10.60;1.00;;;;;;5077696;28;20242;-44
2022/10/07 00:24:28;;;;;;;13.43;3.80;;;10.60;1.00;;;;;;5075356;28;20395;-44
2022/10/07 00:26:53;;;;;;;9.37;3.50;;;10.60;1.00;;;;;;5073073;28;20272;-44
2022/10/07 00:29:19;;;;;;;13.07;3.40;;;10.60;1.00;;;;;;5075955;28;20193;-44
2022/10/07 00:31:45;;;;;;;11.63;3.40;;;10.60;1.00;;;;;;5072485;28;20194;-45
2022/10/07 00:34:11;;;;;;;6.80;3.50;;;10.50;1.00;;;;;;5084137;28;20642;-44
2022/10/07 00:36:37;;;;;;;8.60;3.00;;;10.50;1.00;;;;;;5082210;28;20552;-44
2022/10/07 00:39:21;;;;;;;9.63;3.17;;;10.50;1.00;;;;;;5074604;28;20177;-45
2022/10/07 00:41:49;;;;;;;8.50;2.90;;;10.50;1.00;;;;;;5075355;28;20430;-44
2022/10/07 00:44:30;;;;;;;10.90;2.73;;;10.50;1.00;;;;;;5079529;28;20800;-44
2022/10/07 00:47:12;;;;;;;8.17;3.23;;;10.40;1.00;;;;;;5075909;28;20430;-44
2022/10/07 00:49:43;;;;;;;12.90;3.00;;;10.30;1.00;;;;;;5077692;28;20442;-44
2022/10/07 00:52:10;;;;;;;7.43;3.03;;;10.30;1.00;;;;;;5074321;28;20539;-44
2022/10/07 00:54:36;;;;;;;6.70;2.67;;;10.30;1.00;;;;;;5078486;28;20502;-44
2022/10/07 00:57:02;;;;;;;11.90;3.63;;;10.30;1.00;;;;;;5076399;28;20467;-44
2022/10/07 00:59:28;;;;;;;8.57;2.97;;;10.20;1.00;;;;;;5086059;28;20473;-44
2022/10/07 01:01:53;;;;;;;12.10;3.40;;;10.10;1.00;;;;;;5076546;28;20459;-44
2022/10/07 01:04:19;;;;;;;12.93;3.47;;;10.10;1.00;;;;;;5072726;28;20586;-45
2022/10/07 01:06:45;;;;;;;9.00;3.30;;;10.00;4.50;;;;;;5070048;28;20550;-44
2022/10/07 01:09:11;;;;;;;6.93;3.20;;;9.90;29.90;;;;;;5079505;28;20189;-44
2022/10/07 01:11:51;;;;;;;6.73;3.40;;;9.80;56.50;;;;;;5077128;28;20435;-44
2022/10/07 01:14:32;;;;;;;13.20;4.07;;;9.80;94.50;;;;;;5073863;28;20431;-44
2022/10/07 01:17:09;;;;;;;6.83;2.90;;;9.80;99.90;;;;;;5072646;28;20474;-44
2022/10/07 01:20:07;;;;;;;8.50;3.10;;;9.70;99.90;;;;;;5081261;28;20449;-44
2022/10/07 01:22:52;;;;;;;8.80;3.67;;;9.80;99.90;;;;;;5072345;28;20442;-44
2022/10/07 01:25:40;;;;;;;7.33;3.60;;;9.70;99.90;;;;;;5080126;28;20438;-44
2022/10/07 01:28:15;;;;;;;7.30;3.40;;;9.70;99.90;;;;;;5072207;28;20523;-44
2022/10/07 01:30:47;;;;;;;11.20;3.67;;;9.70;99.90;;;;;;5079536;28;20539;-46
2022/10/07 01:33:17;;;;;;;15.20;3.80;;;9.60;99.90;;;;;;5073921;28;20836;-44
2022/10/07 01:35:47;;;;;;;10.23;3.80;;;9.60;99.90;;;;;;5081981;28;20470;-45
2022/10/07 01:38:16;;;;;;;10.40;3.67;;;9.50;99.90;;;;;;5073188;28;20469;-44
2022/10/07 01:40:50;;;;;;;7.17;3.50;;;9.50;99.90;;;;;;5080033;28;20518;-45
2022/10/07 01:43:18;;;;;;;11.77;4.47;;;9.50;99.90;;;;;;5081184;28;20450;-46
2022/10/07 01:45:45;;;;;;;8.67;3.57;;;9.50;99.90;;;;;;5088192;28;20980;-44
2022/10/07 01:48:11;;;;;;;20.27;4.60;;;9.40;99.90;;;;;;5080033;28;20442;-45
2022/10/07 01:50:37;;;;;;;13.07;3.90;;;9.40;99.90;;;;;;5073573;28;20443;-44
2022/10/07 01:53:19;;;;;;;13.10;3.90;;;9.40;99.90;;;;;;5075421;28;20509;-44
2022/10/07 01:56:18;;;;;;;11.33;3.90;;;9.30;99.90;;;;;;5080963;28;21067;-44
2022/10/07 01:59:26;;;;;;;11.83;4.87;;;9.30;1.00;;;;;;5073674;28;20466;-44
2022/10/07 02:02:03;;;;;;;12.20;4.50;;;9.40;1.00;;;;;;5077978;28;20449;-44
2022/10/07 02:04:34;;;;;;;6.73;4.00;;;9.30;1.00;;;;;;5074400;28;20467;-44
2022/10/07 02:07:29;;;;;;;9.10;4.57;;;9.30;1.00;;;;;;5080001;28;20531;-44
2022/10/07 02:09:59;;;;;;;6.73;3.90;;;9.30;1.00;;;;;;5075965;28;20439;-44
2022/10/07 02:12:36;;;;;;;8.47;3.70;;;9.20;1.00;;;;;;5080220;28;20447;-44
2022/10/07 02:15:18;;;;;;;10.60;4.73;;;9.20;1.00;;;;;;5085052;28;20444;-44
2022/10/07 02:18:06;;;;;;;10.17;4.17;;;9.10;1.00;;;;;;5077650;28;20442;-44
2022/10/07 02:20:36;;;;;;;14.00;4.50;;;9.20;1.00;;;;;;5082315;28;20430;-44
2022/10/07 02:23:05;;;;;;;13.50;4.67;;;9.10;1.00;;;;;;5082635;28;20447;-44
2022/10/07 02:25:36;;;;;;;15.20;4.43;;;9.10;34.20;;;;;;5078371;28;20944;-45
2022/10/07 02:28:05;;;;;;;9.60;4.23;;;9.20;97.50;;;;;;5073080;28;20500;-44
2022/10/07 02:30:33;;;;;;;10.67;5.07;;;9.20;48.70;;;;;;5075473;28;20455;-44
2022/10/07 02:33:02;;;;;;;6.27;4.73;;;9.20;26.10;;;;;;5080016;28;20435;-44
2022/10/07 02:35:44;;;;;;;10.53;3.90;;;9.20;57.70;;;;;;5079102;28;20795;-44
2022/10/07 02:38:13;;;;;;;11.77;4.40;;;9.20;73.30;;;;;;5074045;28;20530;-44
2022/10/07 02:40:50;;;;;;;18.70;4.63;;;9.20;54.90;;;;;;5068989;28;20521;-45
2022/10/07 02:43:37;;;;;;;8.30;4.03;;;9.20;12.10;;;;;;5073525;28;20442;-45
2022/10/07 02:46:36;;;;;;;12.27;4.30;;;9.20;1.00;;;;;;5079112;28;20438;-45
2022/10/07 02:49:07;;;;;;;12.53;4.70;;;9.20;1.00;;;;;;5075056;28;20483;-44
2022/10/07 02:51:38;;;;;;;5.70;3.90;;;9.10;4.30;;;;;;5076511;28;20436;-44
2022/10/07 02:54:04;;;;;;;9.23;4.10;;;9.10;1.00;;;;;;5074095;28;20930;-44
2022/10/07 02:56:32;;;;;;;10.20;3.90;;;9.10;1.00;;;;;;5075032;28;20475;-44
2022/10/07 02:59:00;;;;;;;17.77;4.00;;;9.00;1.00;;;;;;5076831;28;20197;-44
2022/10/07 03:01:33;;;;;;;12.07;4.17;;;9.00;99.90;;;;;;5075357;28;20502;-44
2022/10/07 03:03:58;;;;;;;10.77;3.97;;;9.00;99.90;;;;;;5077546;28;21290;-45
2022/10/07 03:06:28;;;;;;;20.27;4.60;;;9.00;99.90;;;;;;5091169;28;20504;-44
2022/10/07 03:08:56;;;;;;;10.17;4.20;;;9.00;99.90;;;;;;5076565;28;22089;-44
2022/10/07 03:11:22;;;;;;;7.20;3.23;;;9.00;99.90;;;;;;5082231;28;20443;-44
2022/10/07 03:13:48;;;;;;;16.20;4.03;;;9.00;99.90;;;;;;5073619;28;20455;-44
2022/10/07 03:16:14;;;;;;;16.67;3.90;;;9.00;99.90;;;;;;5076927;28;20525;-45
2022/10/07 03:18:40;;;;;;;12.53;3.63;;;9.00;99.90;;;;;;5073951;28;20181;-44
2022/10/07 03:21:06;;;;;;;10.47;3.77;;;8.90;99.90;;;;;;5085921;28;20181;-44
2022/10/07 03:23:32;;;;;;;11.73;4.00;;;8.90;99.90;;;;;;5070987;28;20968;-44
2022/10/07 03:25:59;;;;;;;8.10;3.33;;;8.90;99.90;;;;;;5074495;28;20463;-44
2022/10/07 03:28:28;;;;;;;13.53;3.60;;;9.00;99.90;;;;;;5070050;28;20465;-44
2022/10/07 03:31:06;;;;;;;11.77;3.90;;;9.00;90.90;;;;;;5085692;28;20436;-45
2022/10/07 03:33:32;;;;;;;7.50;3.20;;;9.10;21.20;;;;;;5076464;28;20443;-44
2022/10/07 03:35:57;;;;;;;8.60;3.33;;;9.10;1.00;;;;;;5076901;28;20492;-44
2022/10/07 03:38:23;;;;;;;7.70;3.13;;;9.00;1.00;;;;;;5070807;28;20272;-44
2022/10/07 03:40:48;;;;;;;12.87;3.67;;;9.00;1.00;;;;;;5073725;28;20204;-44
2022/10/07 03:43:14;;;;;;;12.63;3.00;;;9.00;1.00;;;;;;5078706;28;20265;-44
2022/10/07 03:45:44;;;;;;;6.07;3.50;;;9.00;1.00;;;;;;5075961;28;20635;-45
2022/10/07 03:48:10;;;;;;;6.50;2.87;;;9.00;1.00;;;;;;5074303;28;20205;-45
2022/10/07 03:50:36;;;;;;;9.57;3.27;;;9.00;1.00;;;;;;5081829;28;20851;-45
2022/10/07 03:53:03;;;;;;;11.63;2.90;;;9.00;1.00;;;;;;5072985;28;20427;-44
2022/10/07 03:55:29;;;;;;;6.37;3.10;;;9.00;1.00;;;;;;5071027;28;20495;-44
2022/10/07 03:57:56;;;;;;;7.90;3.20;;;9.00;1.00;;;;;;5070570;28;20487;-44
2022/10/07 04:00:24;;;;;;;10.20;3.27;;;9.00;1.00;;;;;;5080765;28;20196;-44
2022/10/07 04:02:50;;;;;;;11.93;3.20;;;8.90;1.00;;;;;;5077004;28;20428;-45
2022/10/07 04:05:18;;;;;;;10.53;2.87;;;8.90;1.00;;;;;;5074376;28;20532;-46
2022/10/07 04:07:45;;;;;;;9.03;2.80;;;8.90;1.00;;;;;;5085270;28;20438;-44
2022/10/07 04:10:12;;;;;;;8.90;2.67;;;8.90;1.00;;;;;;5080708;28;20447;-44
2022/10/07 04:12:38;;;;;;;7.30;3.47;;;8.80;1.00;;;;;;5072918;28;20469;-44
2022/10/07 04:15:04;;;;;;;11.23;3.30;;;8.80;1.00;;;;;;5070501;28;20439;-45
2022/10/07 04:17:30;;;;;;;12.57;4.67;;;8.70;1.00;;;;;;5082850;28;20211;-44
2022/10/07 04:19:56;;;;;;;7.23;3.87;;;8.70;1.00;;;;;;5083205;28;20434;-44
2022/10/07 04:22:22;;;;;;;13.97;3.63;;;8.60;1.00;;;;;;5074531;28;20427;-44
2022/10/07 04:25:32;;;;;;;12.83;4.27;;;8.60;1.00;;;;;;5070680;28;20518;-44
2022/10/07 04:27:38;;;;;;;10.03;3.60;;;8.50;72.80;;;;;;5071116;28;20432;-44
2022/10/07 04:30:05;;;;;;;6.80;3.53;;;8.50;99.90;;;;;;5070957;28;20898;-45
2022/10/07 04:32:30;;;;;;;9.23;2.83;;;8.50;99.90;;;;;;5074616;28;20496;-44
2022/10/07 04:34:56;;;;;;;8.00;3.30;;;8.50;99.90;;;;;;5080104;28;20435;-44
2022/10/07 04:37:22;;;;;;;17.33;3.70;;;8.50;99.90;;;;;;5080849;28;20265;-44
2022/10/07 04:39:47;;;;;;;14.57;3.10;;;8.60;99.90;;;;;;5074392;28;20213;-44
2022/10/07 04:43:17;;;;;;;9.53;4.40;;;8.60;99.90;;;;;;5074381;28;20181;-44
2022/10/07 04:44:59;;;;;;;13.27;2.60;;;8.70;99.90;;;;;;5070272;28;20199;-44
2022/10/07 04:47:24;;;;;;;7.27;2.90;;;8.80;91.30;;;;;;5078171;28;20443;-44
2022/10/07 04:49:52;;;;;;;7.53;2.50;;;8.90;1.00;;;;;;5072744;28;20185;-44
2022/10/07 04:52:19;;;;;;;5.00;2.40;;;8.90;1.00;;;;;;5075601;28;20285;-44
2022/10/07 04:54:45;;;;;;;10.90;3.13;;;8.90;1.00;;;;;;5069839;28;20527;-44
2022/10/07 04:57:12;;;;;;;5.00;2.30;;;8.90;99.90;;;;;;5076449;28;20542;-44
2022/10/07 04:59:38;;;;;;;9.30;3.67;;;9.00;99.90;;;;;;5071629;28;20185;-44
2022/10/07 05:02:04;;;;;;;9.77;3.20;;;9.00;99.90;;;;;;5072755;28;21276;-45
2022/10/07 05:04:29;;;;;;;7.23;2.93;;;9.00;99.90;;;;;;5080116;28;20471;-44
2022/10/07 05:06:55;;;;;;;18.03;3.40;;;9.00;99.90;;;;;;5073955;28;20603;-44
2022/10/07 05:09:21;;;;;;;6.40;2.67;;;9.00;99.90;;;;;;5070110;28;20839;-46
2022/10/07 05:11:47;;;;;;;10.47;3.03;;;9.10;99.90;;;;;;5074804;28;20243;-44
2022/10/07 05:14:19;;;;;;;10.00;2.77;;;9.20;99.90;;;;;;5076627;28;20183;-44
2022/10/07 05:16:50;;;;;;;9.60;2.70;;;9.20;99.90;;;;;;5084026;28;20457;-44
2022/10/07 05:19:16;;;;;;;10.60;2.57;;;9.30;97.70;;;;;;5075213;28;20933;-44
2022/10/07 05:21:41;;;;;;;7.67;2.97;;;9.20;69.90;;;;;;5072633;28;20448;-44
2022/10/07 05:24:07;;;;;;;8.83;2.60;;;9.10;77.40;;;;;;5072524;28;20288;-45
2022/10/07 05:26:33;;;;;;;10.27;2.80;;;9.10;99.90;;;;;;5073141;28;20551;-44
2022/10/07 05:28:59;;;;;;;10.20;3.53;;;9.00;99.90;;;;;;5076252;28;20436;-44
2022/10/07 05:31:26;;;;;;;8.33;3.90;;;8.90;99.90;;;;;;5086952;28;20187;-44
2022/10/07 05:33:52;;;;;;;16.77;4.13;;;8.80;99.90;;;;;;5077210;28;20177;-44
2022/10/07 05:36:18;;;;;;;13.13;4.40;;;8.70;99.90;;;;;;5078749;28;20851;-44
2022/10/07 05:38:45;;;;;;;9.43;3.90;;;8.60;99.90;;;;;;5075461;28;20834;-44
2022/10/07 05:41:11;;;;;;;12.67;4.23;;;8.60;99.90;;;;;;5082110;28;20990;-44
2022/10/07 05:43:41;;;;;;;11.00;4.57;;;8.50;99.90;;;;;;5076452;28;20432;-44
2022/10/07 05:46:11;;;;;;;9.30;4.77;;;8.40;1.00;;;;;;5084924;28;20450;-44
2022/10/07 05:48:37;;;;;;;14.77;5.30;;;8.40;1.00;;;;;;5084118;28;21308;-44
2022/10/07 05:51:03;;;;;;;18.37;4.87;;;8.30;1.00;;;;;;5080227;28;20451;-44
2022/10/07 05:53:29;;;;;;;13.90;5.40;;;8.30;1.00;;;;;;5080247;28;20610;-45
2022/10/07 05:55:55;;;;;;;18.20;5.03;;;8.30;1.00;;;;;;5087415;28;20470;-44
2022/10/07 05:58:21;;;;;;;8.60;4.60;;;8.30;69.40;;;;;;5089323;28;20756;-44
2022/10/07 06:00:58;;;;;;;13.77;4.83;;;8.20;99.90;;;;;;5080877;28;20186;-44
2022/10/07 06:03:24;;;;;;;9.40;4.53;;;8.20;99.90;;;;;;5079732;28;20439;-45
2022/10/07 06:05:51;;;;;;;12.13;4.40;;;8.30;99.90;;;;;;5075825;28;20584;-44
2022/10/07 06:08:18;;;;;;;18.80;4.50;;;8.30;99.90;;;;;;5073607;28;20778;-44
2022/10/07 06:13:29;;;;;;;16.73;4.83;;;8.30;99.90;;;;;;5073188;28;20481;-44
2022/10/07 06:16:06;;;;;;;17.67;4.67;;;8.30;1.00;;;;;;5078413;28;21229;-45
2022/10/07 06:18:34;;;;;;;22.37;5.13;;;8.40;1.00;;;;;;5083193;28;20188;-44
2022/10/07 06:21:00;;;;;;;15.00;5.60;;;8.40;1.00;;;;;;5078921;28;20784;-44
2022/10/07 06:23:26;;;;;;;8.73;4.30;;;8.50;1.00;;;;;;5088857;28;20483;-44
2022/10/07 06:26:04;;;;;;;16.73;5.17;;;8.60;1.00;;;;;;5083332;28;20646;-55
2022/10/07 06:28:33;;;;;;;10.33;4.30;;;8.70;1.00;;;;;;5086086;28;20445;-55
2022/10/07 06:31:01;;;;;;;12.17;4.77;;;8.70;1.00;;;;;;5079935;28;21599;-55
2022/10/07 06:33:27;;;;;;;10.00;4.50;;;8.80;1.00;;;;;;5078416;28;20436;-55
2022/10/07 06:35:55;;;;;;;19.30;4.93;;;8.80;1.00;;;;;;5072820;28;20766;-55
2022/10/07 06:38:21;;;;;;;14.80;4.63;;;9.00;99.90;;;;;;5073155;28;20692;-54
2022/10/07 06:41:03;;;;;;;16.10;4.77;;;9.10;99.90;;;;;;5078497;28;20438;-55
2022/10/07 06:43:33;;;;;;;16.60;4.37;;;9.20;99.90;;;;;;5071793;28;20197;-55
2022/10/07 06:46:03;;;;;;;13.90;4.70;;;9.30;99.90;;;;;;5080900;28;20443;-55
2022/10/07 06:48:31;;;;;;;16.73;5.10;;;9.40;1.00;;;;;;5078383;28;20486;-55
2022/10/07 06:50:58;;;;;;;19.70;4.80;;;9.40;1.00;;;;;;5075105;28;20440;-55
2022/10/07 06:53:24;;;;;;;12.83;4.90;;;9.40;1.00;;;;;;5069971;28;20530;-55
2022/10/07 06:55:53;;;;;;;15.43;4.73;;;9.50;1.00;;;;;;5082248;28;20467;-55
2022/10/07 06:58:21;;;;;;;19.87;4.30;;;9.70;1.00;;;;;;5075326;28;20475;-56
2022/10/07 07:00:48;;;;;;;26.30;4.20;;;9.80;99.90;;;;;;5085871;28;20772;-48
2022/10/07 07:03:14;;;;;;;12.40;3.37;;;10.00;99.90;;;;;;5089389;28;20542;-54
2022/10/07 07:05:41;;;;;;;13.33;3.47;;;10.10;99.90;;;;;;5090983;28;20570;-55
2022/10/07 07:08:07;;;;;;;10.40;3.43;;;10.30;99.90;;;;;;5084553;28;20451;-55
2022/10/07 07:10:37;;;;;;;11.40;3.13;;;10.50;37.80;;;;;;5082152;28;20976;-55
2022/10/07 07:13:04;;;;;;;14.07;3.80;;;10.60;1.00;;;;;;5085363;28;20651;-55
2022/10/07 07:15:30;;;;;;;11.10;3.27;;;10.70;1.00;;;;;;5085201;28;20525;-55
2022/10/07 07:17:56;;;;;;;16.40;3.67;;;10.90;1.00;;;;;;5071929;28;20444;-54
2022/10/07 07:20:21;;;;;;;27.13;4.60;;;11.00;1.00;;;;;;5080281;28;20177;-54
2022/10/07 07:22:48;;;;;;;29.97;4.37;;;11.10;1.00;;;;;;5090232;28;20196;-55
2022/10/07 07:25:14;;;;;;;9.13;3.20;;;11.30;1.00;;;;;;5087506;28;20181;-54
2022/10/07 07:27:40;;;;;;;19.40;3.87;;;11.60;1.00;;;;;;5073700;28;21140;-55
2022/10/07 07:30:06;;;;;;;11.70;2.50;;;12.10;1.00;;;;;;5076253;28;20176;-54
2022/10/07 07:32:31;;;;;;;17.23;3.07;;;12.70;1.00;;;;;;5074824;28;20695;-55
2022/10/07 07:34:59;;;;;;;20.67;3.30;;;13.50;1.00;;;;;;5077245;28;20464;-54
2022/10/07 07:37:28;;;;;;;9.53;2.90;;;14.10;1.00;;;;;;5087865;28;20276;-55
2022/10/07 07:39:54;;;;;;;7.40;2.60;;;14.90;1.00;;;;;;5086908;28;20415;-55
2022/10/07 07:42:20;;;;;;;19.47;4.20;;;15.50;1.00;;;;;;5081315;28;20466;-55
2022/10/07 07:44:46;;;;;;;9.30;2.70;;;16.00;1.00;;;;;;5082429;28;20177;-55
2022/10/07 07:47:15;;;;;;;8.43;2.60;;;16.50;1.00;;;;;;5082665;28;20453;-53
2022/10/07 07:49:41;;;;;;;8.90;2.57;;;16.40;1.00;;;;;;5076156;28;20443;-55
2022/10/07 07:52:07;;;;;;;21.93;2.90;;;16.30;1.00;;;;;;5074880;28;20435;-53
2022/10/07 07:54:36;;;;;;;11.37;2.63;;;16.50;1.00;;;;;;5072435;28;20450;-52
2022/10/07 07:57:02;;;;;;;16.60;3.47;;;16.20;1.00;;;;;;5073359;28;20470;-54
2022/10/07 07:59:30;;;;;;;9.33;2.67;;;16.30;1.00;;;;;;5083112;28;20500;-55
2022/10/07 08:01:56;;;;;;;10.27;2.33;;;16.80;1.00;;;;;;5075989;28;20454;-53
2022/10/07 08:04:22;;;;;;;9.40;3.00;;;17.40;1.00;;;;;;5084821;28;20573;-54
2022/10/07 08:06:48;;;;;;;13.77;3.03;;;17.80;1.00;;;;;;5072104;28;20765;-54
2022/10/07 08:09:14;;;;;;;12.77;3.00;;;17.90;1.00;;;;;;5083880;28;20435;-47
2022/10/07 08:11:44;;;;;;;10.17;2.77;;;18.00;1.00;;;;;;5088963;28;20514;-54
2022/10/07 08:14:11;;;;;;;10.40;2.47;;;17.90;1.00;;;;;;5074966;28;20192;-55
2022/10/07 08:16:37;;;;;;;10.87;2.80;;;17.80;99.90;;;;;;5089326;28;20467;-54
2022/10/07 08:19:03;;;;;;;11.70;2.70;;;17.60;99.90;;;;;;5070779;28;20436;-54
2022/10/07 08:21:31;;;;;;;10.13;2.97;;;17.40;99.90;;;;;;5073279;28;20574;-54
2022/10/07 08:23:58;;;;;;;11.80;2.60;;;16.70;99.90;;;;;;5082565;28;20434;-54
2022/10/07 08:26:27;;;;;;;6.23;2.40;;;16.30;99.90;;;;;;5082057;28;20430;-55
2022/10/07 08:28:53;;;;;;;8.37;2.73;;;16.00;1.00;;;;;;5076463;28;20985;-54
2022/10/07 08:31:19;;;;;;;15.90;2.40;;;15.90;1.00;;;;;;5088132;28;20411;-55
2022/10/07 08:33:47;;;;;;;10.93;2.73;;;16.00;1.00;;;;;;5080046;28;20258;-56
2022/10/07 08:36:16;;;;;;;9.43;2.37;;;16.30;1.00;;;;;;5083721;28;20499;-54
2022/10/07 08:38:42;;;;;;;4.67;2.10;;;16.40;1.00;;;;;;5069954;28;20972;-54
2022/10/07 08:41:08;;;;;;;15.77;2.67;;;16.60;1.00;;;;;;5076932;28;20466;-54
2022/10/07 08:43:40;;;;;;;11.37;2.47;;;16.20;1.00;;;;;;5073947;28;20424;-56
2022/10/07 08:46:11;;;;;;;10.23;2.50;;;16.00;1.00;;;;;;5073167;28;20913;-56
2022/10/07 08:48:39;;;;;;;9.27;2.33;;;15.90;1.00;;;;;;5081097;28;20584;-55
2022/10/07 08:51:14;;;;;;;10.70;2.30;;;15.80;1.00;;;;;;5089032;28;20435;-56
2022/10/07 08:53:43;;;;;;;15.10;2.60;;;15.70;1.00;;;;;;5087936;28;20446;-55
2022/10/07 08:56:16;;;;;;;18.30;2.67;;;15.80;1.00;;;;;;5089808;28;20463;-54
2022/10/07 08:59:09;;;;;;;11.50;2.90;;;15.70;1.00;;;;;;5082039;28;20434;-55
2022/10/07 09:01:53;;;;;;;14.73;2.40;;;15.50;1.00;;;;;;5074600;28;20930;-54
2022/10/07 09:04:47;;;;;;;9.27;2.70;;;15.40;1.00;;;;;;5078618;28;20524;-55
2022/10/07 09:07:18;;;;;;;9.77;2.27;;;15.40;1.00;;;;;;5078850;28;20467;-54
2022/10/07 09:09:52;;;;;;;11.00;2.40;;;15.30;1.00;;;;;;5084422;28;20434;-54
2022/10/07 09:12:39;;;;;;;6.40;2.20;;;15.30;1.00;;;;;;5084526;28;20435;-54
2022/10/07 09:15:14;;;;;;;22.60;3.13;;;15.10;1.00;;;;;;5088832;28;20441;-56
2022/10/07 09:17:47;;;;;;;9.23;2.67;;;15.00;1.00;;;;;;5089294;28;20441;-55
2022/10/07 09:20:18;;;;;;;10.30;3.00;;;14.90;1.00;;;;;;5069413;28;20968;-55
2022/10/07 09:22:52;;;;;;;16.57;2.37;;;14.80;1.00;;;;;;5068540;28;20817;-52
2022/10/07 09:25:18;;;;;;;8.10;2.00;;;14.70;1.00;;;;;;5070641;28;20478;-55
2022/10/07 09:27:43;;;;;;;9.87;2.13;;;14.70;1.00;;;;;;5090145;28;20429;-55
2022/10/07 09:30:12;;;;;;;8.70;2.40;;;14.60;1.00;;;;;;5085197;28;20550;-54
2022/10/07 09:32:41;;;;;;;11.70;2.30;;;14.60;1.00;;;;;;5087987;28;20184;-55
2022/10/07 09:35:13;;;;;;;12.93;3.17;;;14.50;1.00;;;;;;5080342;28;20533;-55
2022/10/07 09:37:52;;;;;;;8.17;2.50;;;14.60;1.00;;;;;;5089725;28;20422;-54
2022/10/07 09:40:31;;;;;;;8.43;2.13;;;14.60;1.00;;;;;;5071960;28;20435;-54
2022/10/07 09:42:58;;;;;;;10.80;2.63;;;14.70;1.00;;;;;;5067057;28;20435;-53
2022/10/07 09:45:25;;;;;;;14.37;2.43;;;14.70;1.00;;;;;;5069557;28;20450;-56
2022/10/07 09:47:54;;;;;;;12.27;2.30;;;14.80;1.00;;;;;;5081512;28;20808;-55
2022/10/07 09:50:38;;;;;;;8.63;2.27;;;14.80;1.00;;;;;;5073892;28;20839;-54
2022/10/07 09:53:32;;;;;;;7.73;2.17;;;14.90;1.00;;;;;;5076681;28;20436;-54
2022/10/07 09:55:57;;;;;;;7.53;2.27;;;14.90;1.00;;;;;;5075824;28;20467;-56
2022/10/07 09:58:30;;;;;;;7.80;1.90;;;15.00;1.00;;;;;;5082673;28;20655;-56
2022/10/07 10:01:08;;;;;;;9.57;2.40;;;15.20;1.00;;;;;;5088477;28;21006;-55
2022/10/07 10:03:36;;;;;;;11.07;2.63;;;15.30;1.00;;;;;;5087267;28;20446;-53
2022/10/07 10:06:05;;;;;;;12.30;2.27;;;15.50;1.00;;;;;;5087327;28;21153;-53
2022/10/07 10:08:32;;;;;;;13.80;2.60;;;15.70;1.00;;;;;;5085648;28;21120;-55
2022/10/07 10:11:06;;;;;;;13.63;2.70;;;15.80;1.00;;;;;;5086315;28;20533;-53
2022/10/07 10:13:34;;;;;;;15.73;2.40;;;15.90;1.00;;;;;;5087197;28;20803;-54
2022/10/07 10:16:02;;;;;;;17.83;2.30;;;16.10;1.00;;;;;;5074430;28;20467;-55
2022/10/07 10:18:38;;;;;;;9.57;2.40;;;16.30;1.00;;;;;;5081424;28;20447;-57
2022/10/07 10:21:28;;;;;;;7.63;2.23;;;16.60;1.00;;;;;;5074741;28;20446;-55
2022/10/07 10:24:00;;;;;;;16.13;2.40;;;16.90;1.00;;;;;;5086027;28;20469;-56
2022/10/07 10:26:35;;;;;;;13.33;2.37;;;17.50;1.00;;;;;;5072757;28;20466;-54
2022/10/07 10:29:25;;;;;;;8.53;2.57;;;18.20;1.00;;;;;;5086498;28;21102;-55
2022/10/07 10:32:00;;;;;;;12.90;2.53;;;19.00;1.00;;;;;;5084210;28;20853;-56
2022/10/07 10:34:43;;;;;;;10.63;2.07;;;19.70;1.00;;;;;;5086419;28;20430;-56
2022/10/07 10:37:22;;;;;;;6.93;2.40;;;20.30;99.90;;;;;;5078540;28;20455;-59
2022/10/07 10:39:59;;;;;;;11.03;2.00;;;20.90;99.90;;;;;;5073282;28;20530;-55
2022/10/07 10:42:51;;;;;;;6.50;2.10;;;21.30;99.90;;;;;;5072095;28;20431;-56
2022/10/07 10:45:26;;;;;;;9.43;2.30;;;22.30;99.90;;;;;;5059368;28;20458;-55
2022/10/07 10:48:23;;;;;;;10.80;1.97;;;23.20;99.90;;;;;;5071155;28;20681;-56
2022/10/07 10:51:00;;;;;;;13.03;2.50;;;23.50;99.90;;;;;;5071850;28;20396;-56
2022/10/07 10:54:01;;;;;;;9.13;2.13;;;23.40;99.90;;;;;;5074623;28;20431;-57
2022/10/07 10:56:49;;;;;;;13.97;2.50;;;23.20;99.90;;;;;;5072235;28;20604;-57
2022/10/07 10:59:17;;;;;;;8.23;2.17;;;23.30;99.90;;;;;;5083151;28;20438;-57
2022/10/07 11:01:46;;;;;;;11.83;2.37;;;23.80;99.90;;;;;;5081475;28;20824;-54
2022/10/07 11:04:18;;;;;;;10.83;2.10;;;23.80;99.90;;;;;;5091983;28;20469;-55
2022/10/07 11:06:49;;;;;;;4.33;1.80;;;23.30;99.90;;;;;;5112404;28;20430;-56
2022/10/07 11:09:48;;;;;;;13.87;3.10;;;23.40;99.90;;;;;;5095234;28;20426;-56
2022/10/07 11:12:26;;;;;;;9.37;2.43;;;23.70;99.90;;;;;;5091051;28;20437;-57
2022/10/07 11:14:57;;;;;;;9.90;3.10;;;23.60;99.90;;;;;;5091978;28;20449;-55
2022/10/07 11:17:30;;;;;;;8.97;2.27;;;23.90;99.90;;;;;;5089433;28;20455;-56
2022/10/07 11:20:17;;;;;;;7.77;2.00;;;23.90;99.90;;;;;;5071665;28;20418;-56
2022/10/07 11:22:49;;;;;;;8.30;2.30;;;23.80;99.90;;;;;;5086538;28;20857;-57
2022/10/07 11:25:36;;;;;;;7.43;1.90;;;23.90;99.90;;;;;;5092290;28;20456;-56
2022/10/07 11:28:25;;;;;;;6.70;2.33;;;23.60;99.90;;;;;;5071858;28;20817;-58
2022/10/07 11:31:19;;;;;;;10.00;2.30;;;23.60;99.90;;;;;;5070877;28;20475;-58
2022/10/07 11:33:48;;;;;;;6.00;2.30;;;24.10;99.90;;;;;;5070201;28;20940;-57
2022/10/07 11:36:17;;;;;;;6.73;1.93;;;23.70;99.90;;;;;;5080868;28;20963;-58
2022/10/07 11:38:44;;;;;;;9.17;2.37;;;23.40;99.90;;;;;;5072972;28;20507;-57
2022/10/07 11:41:19;;;;;;;11.80;2.10;;;23.30;99.90;;;;;;5081667;28;20783;-57
2022/10/07 11:43:48;;;;;;;6.07;2.47;;;23.40;99.90;;;;;;5091234;28;20887;-56
2022/10/07 11:46:33;;;;;;;10.23;2.17;;;23.70;99.90;;;;;;5088878;28;20473;-58
2022/10/07 11:49:18;;;;;;;8.27;2.30;;;23.20;99.90;;;;;;5091580;28;20796;-56
2022/10/07 11:51:52;;;;;;;11.73;2.00;;;22.40;99.90;;;;;;5089494;28;20441;-56
2022/10/07 11:54:21;;;;;;;7.87;2.37;;;22.50;99.90;;;;;;5091388;28;20907;-48
2022/10/07 11:56:52;;;;;;;11.50;2.80;;;22.40;99.90;;;;;;5088890;28;20542;-57
2022/10/07 11:59:39;;;;;;;9.37;2.03;;;22.30;99.90;;;;;;5090224;28;20497;-54
2022/10/07 12:02:27;;;;;;;14.40;2.20;;;22.70;99.90;;;;;;5073634;28;20471;-52
2022/10/07 12:04:58;;;;;;;6.03;1.93;;;23.20;99.90;;;;;;5070646;28;21335;-57
2022/10/07 12:07:42;;;;;;;8.73;1.93;;;24.00;99.90;;;;;;5089890;28;20443;-55
2022/10/07 12:10:24;;;;;;;7.93;2.50;;;24.80;99.90;;;;;;5089954;28;20403;-56
2022/10/07 12:13:06;;;;;;;8.53;2.40;;;24.70;99.90;;;;;;5070460;28;20454;-57
2022/10/07 12:15:39;;;;;;;11.00;2.47;;;24.40;99.90;;;;;;5075666;28;20473;-57
2022/10/07 12:18:04;;;;;;;13.10;2.30;;;24.30;99.90;;;;;;5089839;28;20438;-57
2022/10/07 12:20:43;;;;;;;12.20;1.60;;;24.20;99.90;;;;;;5084410;28;20984;-56
2022/10/07 12:23:21;;;;;;;9.03;1.90;;;24.40;99.90;;;;;;5070361;28;20623;-48
2022/10/07 12:26:02;;;;;;;7.20;2.30;;;24.50;99.90;;;;;;5070167;28;20458;-56
2022/10/07 12:28:35;;;;;;;8.50;2.27;;;24.50;99.90;;;;;;5070690;28;20480;-57
2022/10/07 12:31:15;;;;;;;6.83;2.13;;;24.20;99.90;;;;;;5088794;28;20434;-56
2022/10/07 12:33:46;;;;;;;10.33;2.27;;;24.20;99.90;;;;;;5071335;28;20466;-55
2022/10/07 12:36:17;;;;;;;7.83;2.03;;;24.90;99.90;;;;;;5090436;28;20537;-57
2022/10/07 12:39:06;;;;;;;8.70;2.50;;;24.80;99.90;;;;;;5086925;28;20396;-57
2022/10/07 12:41:35;;;;;;;9.70;2.03;;;25.40;99.90;;;;;;5069719;28;20434;-57
2022/10/07 12:44:15;;;;;;;10.53;2.50;;;24.90;99.90;;;;;;5079947;28;20443;-56
2022/10/07 12:46:55;;;;;;;6.23;2.30;;;24.50;99.90;;;;;;5090326;28;20410;-56
2022/10/07 12:49:33;;;;;;;9.10;2.23;;;24.30;99.90;;;;;;5088916;28;20438;-57
2022/10/07 12:52:03;;;;;;;10.07;2.40;;;25.00;99.90;;;;;;5084540;28;20427;-57
2022/10/07 12:54:32;;;;;;;11.00;2.20;;;25.40;99.90;;;;;;5069777;28;20392;-56
2022/10/07 12:57:01;;;;;;;7.67;2.00;;;25.10;99.90;;;;;;5069588;28;20463;-55
2022/10/07 12:59:47;;;;;;;10.33;1.93;;;25.20;99.90;;;;;;5070064;28;20399;-55
2022/10/07 13:02:47;;;;;;;11.90;3.27;;;24.70;99.90;;;;;;5077435;28;20430;-54
2022/10/07 13:05:47;;;;;;;15.43;5.37;;;24.20;99.90;;;;;;5088389;28;20482;-55
2022/10/07 13:08:45;;;;;;;13.07;2.20;;;23.80;99.90;;;;;;5075789;28;20520;-55
2022/10/07 13:11:35;;;;;;;14.33;2.17;;;24.20;99.90;;;;;;5017434;28;21170;-57
2022/10/07 13:14:39;;;;;;;6.93;2.20;;;24.00;99.90;;;;;;5070841;28;20913;-57
2022/10/07 13:17:30;;;;;;;7.40;1.87;;;23.70;99.90;;;;;;5078238;28;20489;-56